createdAt,value
2023-01-07T00:01:07.716Z,73.60
2023-01-07T00:03:35.746Z,73.60
2023-01-07T00:06:05.365Z,73.60
2023-01-07T00:08:35.192Z,73.70
2023-01-07T00:11:03.792Z,73.70
2023-01-07T00:13:32.007Z,73.60
2023-01-07T00:16:00.180Z,73.70
2023-01-07T00:18:29.560Z,73.60
2023-01-07T00:20:58.115Z,73.60
2023-01-07T00:23:26.183Z,73.70
2023-01-07T00:26:00.021Z,73.60
2023-01-07T00:28:27.993Z,73.70
2023-01-07T00:31:00.649Z,73.90
2023-01-07T00:33:30.066Z,73.80
2023-01-07T00:36:01.501Z,73.80
2023-01-07T00:38:29.619Z,73.70
2023-01-07T00:40:57.458Z,73.70
2023-01-07T00:43:25.177Z,73.70
2023-01-07T00:45:52.922Z,73.70
2023-01-07T00:48:21.546Z,73.80
2023-01-07T00:50:52.630Z,73.70
2023-01-07T00:53:21.540Z,73.70
2023-01-07T00:55:49.735Z,73.70
2023-01-07T00:58:20.681Z,73.80
2023-01-07T01:00:48.844Z,73.70
2023-01-07T01:03:17.066Z,73.70
2023-01-07T01:05:44.804Z,73.80
2023-01-07T01:08:13.877Z,73.70
2023-01-07T01:10:41.633Z,73.70
2023-01-07T01:13:13.515Z,73.70
2023-01-07T01:15:43.158Z,73.90
2023-01-07T01:18:11.313Z,74.60
2023-01-07T01:20:39.075Z,73.80
2023-01-07T01:23:07.399Z,73.80
2023-01-07T01:25:36.465Z,73.70
2023-01-07T01:28:04.685Z,73.80
2023-01-07T01:30:32.394Z,73.80
2023-01-07T01:33:01.149Z,73.70
2023-01-07T01:35:28.893Z,73.80
2023-01-07T01:37:57.388Z,73.70
2023-01-07T01:40:29.890Z,73.70
2023-01-07T01:42:58.948Z,73.90
2023-01-07T01:45:28.311Z,73.80
2023-01-07T01:48:00.347Z,73.90
2023-01-07T01:50:30.956Z,73.80
2023-01-07T01:53:04.444Z,73.80
2023-01-07T01:55:37.379Z,73.90
2023-01-07T01:58:13.904Z,73.80
2023-01-07T02:00:42.879Z,73.80
2023-01-07T02:03:17.396Z,73.80
2023-01-07T02:05:46.510Z,73.80
2023-01-07T02:08:15.062Z,73.80
2023-01-07T02:10:43.865Z,73.90
2023-01-07T02:13:32.220Z,73.90
2023-01-07T02:16:07.278Z,73.90
2023-01-07T02:18:49.328Z,74.00
2023-01-07T02:21:27.597Z,74.00
2023-01-07T02:24:27.612Z,74.00
2023-01-07T02:27:16.219Z,74.00
2023-01-07T02:30:20.365Z,73.90
2023-01-07T02:33:16.149Z,74.00
2023-01-07T02:36:13.019Z,73.90
2023-01-07T02:38:53.590Z,73.90
2023-01-07T02:41:29.823Z,74.00
2023-01-07T02:44:05.573Z,73.90
2023-01-07T02:46:43.358Z,74.00
2023-01-07T02:49:16.755Z,74.00
2023-01-07T02:51:45.415Z,74.00
2023-01-07T02:54:20.226Z,74.00
2023-01-07T02:57:07.044Z,74.00
2023-01-07T03:00:08.644Z,74.20
2023-01-07T03:03:02.736Z,74.00
2023-01-07T03:05:52.208Z,74.10
2023-01-07T03:08:49.459Z,74.00
2023-01-07T03:11:20.376Z,74.00
2023-01-07T03:13:52.270Z,74.00
2023-01-07T03:16:25.576Z,74.10
2023-01-07T03:19:00.186Z,74.00
2023-01-07T03:21:34.757Z,74.00
2023-01-07T03:24:03.739Z,74.10
2023-01-07T03:26:35.483Z,74.00
2023-01-07T03:29:05.513Z,74.10
2023-01-07T03:31:37.468Z,74.00
2023-01-07T03:34:09.372Z,74.00
2023-01-07T03:36:41.636Z,74.10
2023-01-07T03:39:11.672Z,74.00
2023-01-07T03:41:57.252Z,74.10
2023-01-07T03:44:25.410Z,74.20
2023-01-07T03:46:53.760Z,74.10
2023-01-07T03:49:21.619Z,74.10
2023-01-07T03:51:52.576Z,74.20
2023-01-07T03:54:20.957Z,74.10
2023-01-07T03:56:48.643Z,74.10
2023-01-07T03:59:16.482Z,74.10
2023-01-07T04:01:44.630Z,74.10
2023-01-07T04:04:13.140Z,74.10
2023-01-07T04:06:41.330Z,74.10
2023-01-07T04:09:11.862Z,74.10
2023-01-07T04:11:39.781Z,74.10
2023-01-07T04:14:07.716Z,74.10
2023-01-07T04:16:35.561Z,74.10
2023-01-07T04:19:03.935Z,74.20
2023-01-07T04:21:32.134Z,74.10
2023-01-07T04:23:59.877Z,74.10
2023-01-07T04:26:29.525Z,74.10
2023-01-07T04:28:57.292Z,74.10
2023-01-07T04:31:25.495Z,74.30
2023-01-07T04:33:53.568Z,74.10
2023-01-07T04:36:21.365Z,74.10
2023-01-07T04:38:49.555Z,74.10
2023-01-07T04:41:17.317Z,74.10
2023-01-07T04:43:46.446Z,74.20
2023-01-07T04:46:14.213Z,74.10
2023-01-07T04:48:42.037Z,74.10
2023-01-07T04:51:09.860Z,74.30
2023-01-07T04:53:38.377Z,74.10
2023-01-07T04:56:07.332Z,74.30
2023-01-07T04:58:35.524Z,74.30
2023-01-07T05:01:05.182Z,74.20
2023-01-07T05:03:35.306Z,74.30
2023-01-07T05:06:03.657Z,74.10
2023-01-07T05:08:32.226Z,74.30
2023-01-07T05:11:00.209Z,74.30
2023-01-07T05:13:28.541Z,74.10
2023-01-07T05:15:56.287Z,74.30
2023-01-07T05:18:25.907Z,74.00
2023-01-07T05:20:53.785Z,74.20
2023-01-07T05:23:21.529Z,74.20
2023-01-07T05:25:51.200Z,74.20
2023-01-07T05:28:19.568Z,74.00
2023-01-07T05:30:48.155Z,74.10
2023-01-07T05:33:16.076Z,74.00
2023-01-07T05:35:47.887Z,74.00
2023-01-07T05:38:17.175Z,73.80
2023-01-07T05:40:49.613Z,73.80
2023-01-07T05:43:21.378Z,73.80
2023-01-07T05:45:49.399Z,73.80
2023-01-07T05:48:17.188Z,73.70
2023-01-07T05:50:46.253Z,73.70
2023-01-07T05:53:14.480Z,73.70
2023-01-07T05:55:42.339Z,73.60
2023-01-07T05:58:10.091Z,73.60
2023-01-07T06:00:38.033Z,73.60
2023-01-07T06:03:06.334Z,73.50
2023-01-07T06:05:34.248Z,73.50
2023-01-07T06:08:03.275Z,73.50
2023-01-07T06:10:30.986Z,73.50
2023-01-07T06:12:58.691Z,73.50
2023-01-07T06:15:26.433Z,73.50
2023-01-07T06:17:54.413Z,73.40
2023-01-07T06:20:22.225Z,73.40
2023-01-07T06:22:49.969Z,73.40
2023-01-07T06:25:19.233Z,73.30
2023-01-07T06:27:46.944Z,73.30
2023-01-07T06:30:14.973Z,73.30
2023-01-07T06:32:44.516Z,73.30
2023-01-07T06:35:13.062Z,73.30
2023-01-07T06:37:40.804Z,73.20
2023-01-07T06:40:09.624Z,73.20
2023-01-07T06:42:38.710Z,73.10
2023-01-07T06:45:07.163Z,73.10
2023-01-07T06:47:35.028Z,73.10
2023-01-07T06:50:02.755Z,73.00
2023-01-07T06:52:30.487Z,73.00
2023-01-07T06:54:58.168Z,73.00
2023-01-07T06:57:25.868Z,73.00
2023-01-07T06:59:54.875Z,73.00
2023-01-07T07:02:24.917Z,72.90
2023-01-07T07:04:52.763Z,72.90
2023-01-07T07:07:20.895Z,73.00
2023-01-07T07:09:50.473Z,72.90
2023-01-07T07:12:19.298Z,73.00
2023-01-07T07:14:47.246Z,72.90
2023-01-07T07:17:16.459Z,72.90
2023-01-07T07:19:44.137Z,72.90
2023-01-07T07:22:11.929Z,72.90
2023-01-07T07:24:39.611Z,72.90
2023-01-07T07:27:07.351Z,72.90
2023-01-07T07:29:35.045Z,72.90
2023-01-07T07:32:03.119Z,72.90
2023-01-07T07:34:32.502Z,72.90
2023-01-07T07:37:00.955Z,72.90
2023-01-07T07:39:28.857Z,72.90
2023-01-07T07:41:56.548Z,72.80
2023-01-07T07:44:24.388Z,72.80
2023-01-07T07:46:52.167Z,72.80
2023-01-07T07:49:19.899Z,73.00
2023-01-07T07:51:48.929Z,73.60
2023-01-07T07:54:16.619Z,74.00
2023-01-07T07:56:44.312Z,75.00
2023-01-07T07:59:12.175Z,74.30
2023-01-07T08:01:40.005Z,74.10
2023-01-07T08:04:07.766Z,74.00
2023-01-07T08:06:35.834Z,74.00
2023-01-07T08:09:05.115Z,74.00
2023-01-07T08:11:32.827Z,74.10
2023-01-07T08:14:00.551Z,74.10
2023-01-07T08:16:28.291Z,74.10
2023-01-07T08:18:56.023Z,74.20
2023-01-07T08:21:24.224Z,74.20
2023-01-07T08:23:51.913Z,74.20
2023-01-07T08:26:20.942Z,74.20
2023-01-07T08:28:48.660Z,74.10
2023-01-07T08:31:16.496Z,74.20
2023-01-07T08:33:44.279Z,74.10
2023-01-07T08:36:22.596Z,74.10
2023-01-07T08:38:52.519Z,74.10
2023-01-07T08:41:23.068Z,74.00
2023-01-07T08:43:51.232Z,74.00
2023-01-07T08:46:19.068Z,74.00
2023-01-07T08:48:46.801Z,74.10
2023-01-07T08:51:14.564Z,74.20
2023-01-07T08:53:42.336Z,74.30
2023-01-07T08:56:10.061Z,74.30
2023-01-07T08:58:39.346Z,74.40
2023-01-07T09:01:08.098Z,74.40
2023-01-07T09:03:36.028Z,74.30
2023-01-07T09:06:03.863Z,74.30
2023-01-07T09:08:31.809Z,74.30
2023-01-07T09:10:59.549Z,74.30
2023-01-07T09:13:27.273Z,74.30
2023-01-07T09:15:56.286Z,74.20
2023-01-07T09:18:24.115Z,74.10
2023-01-07T09:20:51.827Z,74.10
2023-01-07T09:23:19.695Z,74.10
2023-01-07T09:25:47.398Z,74.10
2023-01-07T09:28:15.140Z,74.00
2023-01-07T09:30:42.827Z,74.00
2023-01-07T09:33:12.310Z,74.00
2023-01-07T09:35:40.068Z,74.00
2023-01-07T09:38:07.832Z,73.90
2023-01-07T09:40:38.843Z,73.80
2023-01-07T09:43:11.735Z,73.90
2023-01-07T09:45:43.598Z,74.70
2023-01-07T09:48:19.404Z,73.80
2023-01-07T09:50:55.209Z,73.80
2023-01-07T09:53:26.890Z,73.60
2023-01-07T09:56:11.224Z,73.70
2023-01-07T09:58:42.767Z,73.70
2023-01-07T10:01:24.429Z,73.60
2023-01-07T10:04:02.351Z,73.70
2023-01-07T10:06:43.796Z,73.70
2023-01-07T10:09:26.155Z,73.70
2023-01-07T10:12:02.940Z,73.70
2023-01-07T10:15:12.563Z,73.70
2023-01-07T10:17:57.416Z,73.60
2023-01-07T10:20:35.757Z,73.60
2023-01-07T10:23:08.712Z,73.60
2023-01-07T10:25:41.264Z,73.60
2023-01-07T10:28:14.541Z,73.60
2023-01-07T10:30:45.646Z,73.60
2023-01-07T10:33:20.283Z,73.80
2023-01-07T10:35:54.085Z,73.80
2023-01-07T10:38:22.797Z,73.90
2023-01-07T10:40:55.153Z,74.10
2023-01-07T10:43:39.965Z,74.20
2023-01-07T10:46:25.212Z,74.40
2023-01-07T10:49:14.681Z,74.60
2023-01-07T10:52:16.316Z,74.90
2023-01-07T10:55:05.895Z,75.00
2023-01-07T10:57:34.797Z,75.10
2023-01-07T11:00:05.911Z,75.10
2023-01-07T11:02:33.701Z,75.20
2023-01-07T11:05:01.517Z,75.30
2023-01-07T11:07:34.867Z,75.60
2023-01-07T11:10:05.551Z,75.70
2023-01-07T11:12:41.081Z,75.90
2023-01-07T11:15:15.629Z,76.10
2023-01-07T11:17:47.493Z,76.20
2023-01-07T11:20:17.263Z,76.50
2023-01-07T11:22:46.321Z,76.70
2023-01-07T11:25:28.807Z,77.10
2023-01-07T11:27:58.745Z,77.30
2023-01-07T11:30:29.250Z,77.20
2023-01-07T11:33:00.436Z,77.30
2023-01-07T11:35:29.068Z,77.50
2023-01-07T11:37:59.535Z,77.90
2023-01-07T11:40:29.147Z,78.40
2023-01-07T11:42:58.833Z,78.70
2023-01-07T11:45:28.600Z,79.10
2023-01-07T11:48:03.244Z,79.10
2023-01-07T11:50:36.492Z,79.40
2023-01-07T11:53:23.185Z,79.60
2023-01-07T11:56:00.297Z,79.70
2023-01-07T11:58:31.328Z,79.70
2023-01-07T12:01:14.209Z,79.50
2023-01-07T12:03:43.738Z,79.30
2023-01-07T12:06:19.829Z,79.20
2023-01-07T12:09:05.672Z,79.10
2023-01-07T12:11:36.374Z,78.90
2023-01-07T12:14:08.596Z,78.90
2023-01-07T12:16:37.138Z,78.90
2023-01-07T12:19:22.515Z,78.70
2023-01-07T12:22:08.459Z,78.30
2023-01-07T12:24:56.725Z,77.90
2023-01-07T12:27:34.952Z,77.40
2023-01-07T12:30:12.905Z,76.90
2023-01-07T12:32:51.156Z,76.40
2023-01-07T12:35:24.101Z,75.90
2023-01-07T12:37:57.542Z,75.60
2023-01-07T12:40:33.965Z,75.40
2023-01-07T12:43:05.944Z,75.20
2023-01-07T12:45:40.646Z,75.00
2023-01-07T12:48:16.646Z,74.80
2023-01-07T12:50:47.233Z,74.70
2023-01-07T12:53:19.477Z,74.70
2023-01-07T12:55:53.023Z,74.70
2023-01-07T12:58:29.547Z,74.60
2023-01-07T13:01:03.369Z,74.60
2023-01-07T13:03:44.227Z,74.50
2023-01-07T13:06:18.876Z,74.40
2023-01-07T13:08:52.298Z,74.40
2023-01-07T13:11:47.041Z,74.40
2023-01-07T13:14:20.702Z,74.40
2023-01-07T13:16:49.201Z,74.40
2023-01-07T13:19:17.039Z,74.40
2023-01-07T13:21:47.932Z,74.50
2023-01-07T13:24:54.562Z,74.50
2023-01-07T13:27:26.839Z,74.40
2023-01-07T13:30:13.490Z,74.40
2023-01-07T13:32:53.236Z,74.30
2023-01-07T13:35:32.533Z,74.40
2023-01-07T13:38:14.126Z,74.50
2023-01-07T13:40:50.987Z,74.30
2023-01-07T13:43:36.419Z,74.30
2023-01-07T13:46:10.874Z,74.30
2023-01-07T13:48:39.814Z,74.30
2023-01-07T13:51:09.713Z,74.30
2023-01-07T13:53:47.841Z,74.30
2023-01-07T13:56:43.231Z,74.30
2023-01-07T13:59:31.489Z,74.10
2023-01-07T14:02:20.693Z,74.10
2023-01-07T14:04:51.428Z,74.10
2023-01-07T14:07:20.572Z,74.00
2023-01-07T14:09:48.479Z,74.10
2023-01-07T14:12:49.049Z,74.00
2023-01-07T14:15:47.641Z,74.00
2023-01-07T14:19:00.594Z,74.00
2023-01-07T14:21:52.634Z,74.00
2023-01-07T14:24:55.928Z,74.00
2023-01-07T14:27:45.611Z,74.00
2023-01-07T14:30:21.268Z,74.00
2023-01-07T14:32:57.360Z,74.00
2023-01-07T14:35:30.710Z,74.00
2023-01-07T14:37:58.443Z,74.10
2023-01-07T14:41:04.081Z,74.10
2023-01-07T14:44:06.613Z,74.10
2023-01-07T14:46:53.788Z,74.10
2023-01-07T14:49:49.496Z,74.10
2023-01-07T14:52:42.201Z,74.10
2023-01-07T14:55:31.956Z,74.10
2023-01-07T14:58:16.960Z,74.10
2023-01-07T15:01:14.200Z,74.10
2023-01-07T15:03:59.715Z,74.10
2023-01-07T15:06:34.895Z,74.10
2023-01-07T15:09:29.100Z,74.10
2023-01-07T15:12:15.733Z,74.00
2023-01-07T15:15:04.889Z,74.00
2023-01-07T15:17:33.135Z,74.00
2023-01-07T15:20:04.995Z,74.00
2023-01-07T15:22:52.445Z,74.00
2023-01-07T15:25:31.128Z,74.00
2023-01-07T15:28:05.997Z,74.00
2023-01-07T15:30:44.852Z,74.00
2023-01-07T15:33:33.269Z,74.10
2023-01-07T15:36:03.791Z,74.10
2023-01-07T15:38:38.968Z,74.00
2023-01-07T15:41:06.879Z,74.00
2023-01-07T15:43:35.364Z,74.00
2023-01-07T15:46:05.753Z,74.00
2023-01-07T15:48:33.626Z,74.00
2023-01-07T15:51:01.669Z,74.00
2023-01-07T15:53:31.897Z,74.00
2023-01-07T15:56:04.680Z,73.80
2023-01-07T15:58:37.669Z,73.90
2023-01-07T16:01:06.223Z,73.80
2023-01-07T16:03:37.770Z,73.90
2023-01-07T16:06:06.031Z,73.80
2023-01-07T16:08:34.804Z,73.70
2023-01-07T16:11:05.619Z,73.70
2023-01-07T16:13:35.062Z,73.80
2023-01-07T16:16:06.503Z,73.70
2023-01-07T16:18:34.341Z,73.60
2023-01-07T16:21:05.929Z,73.60
2023-01-07T16:23:34.782Z,73.60
2023-01-07T16:26:07.455Z,73.50
2023-01-07T16:28:39.202Z,73.50
2023-01-07T16:31:11.173Z,73.40
2023-01-07T16:33:39.990Z,73.40
2023-01-07T16:36:14.529Z,73.40
2023-01-07T16:38:43.954Z,73.40
2023-01-07T16:41:21.679Z,73.40
2023-01-07T16:43:49.782Z,73.30
2023-01-07T16:46:21.960Z,73.30
2023-01-07T16:49:26.778Z,73.20
2023-01-07T16:51:56.389Z,73.20
2023-01-07T16:54:34.432Z,73.20
2023-01-07T16:57:05.391Z,73.20
2023-01-07T16:59:36.377Z,73.20
2023-01-07T17:02:19.527Z,73.20
2023-01-07T17:04:47.867Z,73.20
2023-01-07T17:07:22.740Z,73.10
2023-01-07T17:09:53.397Z,73.10
2023-01-07T17:12:29.870Z,73.10
2023-01-07T17:14:57.599Z,73.10
2023-01-07T17:17:31.411Z,73.10
2023-01-07T17:20:13.849Z,73.10
2023-01-07T17:22:42.512Z,72.90
2023-01-07T17:25:12.477Z,73.00
2023-01-07T17:27:49.714Z,73.00
2023-01-07T17:30:19.847Z,72.90
2023-01-07T17:32:50.583Z,72.90
2023-01-07T17:35:20.174Z,72.90
2023-01-07T17:37:48.447Z,72.80
2023-01-07T17:40:16.957Z,72.80
2023-01-07T17:43:04.913Z,72.80
2023-01-07T17:45:32.647Z,72.80
2023-01-07T17:48:01.315Z,72.80
2023-01-07T17:50:36.284Z,72.80
2023-01-07T17:53:04.548Z,72.80
2023-01-07T17:55:35.723Z,72.70
2023-01-07T17:58:05.677Z,72.60
2023-01-07T18:00:36.437Z,72.70
2023-01-07T18:03:04.315Z,72.60
2023-01-07T18:05:32.067Z,72.70
2023-01-07T18:07:59.780Z,72.70
2023-01-07T18:10:50.097Z,72.70
2023-01-07T18:13:18.188Z,72.50
2023-01-07T18:15:45.886Z,72.60
2023-01-07T18:18:13.680Z,72.40
2023-01-07T18:20:41.405Z,72.40
2023-01-07T18:23:11.040Z,72.60
2023-01-07T18:25:39.104Z,72.60
2023-01-07T18:28:06.802Z,72.50
2023-01-07T18:30:36.516Z,72.50
2023-01-07T18:33:04.223Z,72.50
2023-01-07T18:35:31.976Z,72.40
2023-01-07T18:37:59.692Z,72.40
2023-01-07T18:40:27.401Z,72.50
2023-01-07T18:42:55.617Z,72.60
2023-01-07T18:45:23.428Z,72.60
2023-01-07T18:47:52.420Z,72.60
2023-01-07T18:50:20.114Z,72.60
2023-01-07T18:52:47.854Z,72.70
2023-01-07T18:55:17.319Z,72.70
2023-01-07T18:57:45.024Z,72.70
2023-01-07T19:00:13.999Z,72.70
2023-01-07T19:02:41.699Z,72.70
2023-01-07T19:05:11.018Z,72.70
2023-01-07T19:07:38.806Z,72.70
2023-01-07T19:10:07.363Z,72.90
2023-01-07T19:12:35.106Z,72.90
2023-01-07T19:15:02.821Z,72.80
2023-01-07T19:17:30.503Z,72.80
2023-01-07T19:19:58.201Z,72.80
2023-01-07T19:22:27.312Z,72.80
2023-01-07T19:24:56.609Z,72.90
2023-01-07T19:27:24.413Z,72.90
2023-01-07T19:29:52.135Z,72.90
2023-01-07T19:32:19.932Z,72.90
2023-01-07T19:34:49.475Z,72.90
2023-01-07T19:37:17.176Z,72.80
2023-01-07T19:39:46.216Z,72.90
2023-01-07T19:42:14.206Z,72.90
2023-01-07T19:44:42.019Z,72.90
2023-01-07T19:47:09.764Z,72.90
2023-01-07T19:49:37.469Z,72.90
2023-01-07T19:52:05.405Z,72.90
2023-01-07T19:54:34.200Z,72.90
2023-01-07T19:57:03.212Z,72.90
2023-01-07T19:59:33.183Z,72.90
2023-01-07T20:02:01.274Z,72.90
2023-01-07T20:04:29.340Z,72.90
2023-01-07T20:06:57.138Z,72.90
2023-01-07T20:09:24.872Z,72.90
2023-01-07T20:11:52.572Z,72.90
2023-01-07T20:14:21.640Z,72.90
2023-01-07T20:16:49.390Z,72.90
2023-01-07T20:19:17.180Z,72.90
2023-01-07T20:21:44.875Z,72.90
2023-01-07T20:24:13.342Z,72.90
2023-01-07T20:26:41.548Z,72.90
2023-01-07T20:29:09.258Z,72.90
2023-01-07T20:31:38.294Z,72.90
2023-01-07T20:34:05.996Z,72.90
2023-01-07T20:36:33.693Z,72.90
2023-01-07T20:39:05.507Z,72.90
2023-01-07T20:41:34.113Z,72.90
2023-01-07T20:44:04.434Z,72.90
2023-01-07T20:46:34.520Z,72.90
2023-01-07T20:49:03.774Z,72.80
2023-01-07T20:51:31.675Z,72.80
2023-01-07T20:53:59.616Z,72.80
2023-01-07T20:56:31.703Z,72.80
2023-01-07T20:58:59.952Z,72.70
2023-01-07T21:01:28.344Z,72.70
2023-01-07T21:03:56.176Z,72.70
2023-01-07T21:06:25.463Z,72.60
2023-01-07T21:08:53.306Z,72.60
2023-01-07T21:11:22.559Z,72.50
2023-01-07T21:13:51.717Z,72.50
2023-01-07T21:16:20.094Z,72.60
2023-01-07T21:18:48.119Z,72.70
2023-01-07T21:21:18.805Z,72.50
2023-01-07T21:23:48.712Z,72.60
2023-01-07T21:26:17.886Z,72.60
2023-01-07T21:28:45.922Z,72.60
2023-01-07T21:31:16.025Z,72.60
2023-01-07T21:33:44.802Z,72.60
2023-01-07T21:36:14.759Z,72.60
2023-01-07T21:38:42.799Z,72.60
2023-01-07T21:41:14.188Z,72.70
2023-01-07T21:43:42.049Z,72.70
2023-01-07T21:46:10.293Z,72.70
2023-01-07T21:48:40.193Z,72.70
2023-01-07T21:51:10.539Z,72.70
2023-01-07T21:53:38.849Z,72.70
2023-01-07T21:56:08.003Z,73.50
2023-01-07T21:58:37.972Z,72.70
2023-01-07T22:01:07.195Z,72.70
2023-01-07T22:03:36.385Z,72.70
2023-01-07T22:06:06.560Z,72.70
2023-01-07T22:08:34.817Z,72.80
2023-01-07T22:11:02.805Z,72.70
2023-01-07T22:13:30.487Z,72.70
2023-01-07T22:15:59.530Z,72.80
2023-01-07T22:18:27.425Z,72.80
2023-01-07T22:20:56.020Z,72.70
2023-01-07T22:23:24.207Z,72.80
2023-01-07T22:25:52.056Z,72.80
2023-01-07T22:28:22.941Z,72.80
2023-01-07T22:30:53.975Z,72.80
2023-01-07T22:33:23.408Z,72.80
2023-01-07T22:35:51.533Z,72.90
2023-01-07T22:38:23.883Z,72.90
2023-01-07T22:40:52.072Z,72.90
2023-01-07T22:43:23.603Z,72.90
2023-01-07T22:45:55.716Z,72.80
2023-01-07T22:48:27.798Z,72.80
2023-01-07T22:51:10.051Z,72.80
2023-01-07T22:53:37.980Z,72.80
2023-01-07T22:56:06.515Z,72.80
2023-01-07T22:58:34.204Z,72.80
2023-01-07T23:01:12.702Z,72.90
2023-01-07T23:03:43.116Z,72.90
2023-01-07T23:06:12.801Z,72.90
2023-01-07T23:08:41.802Z,72.90
2023-01-07T23:11:10.555Z,72.90
2023-01-07T23:13:38.392Z,72.90
2023-01-07T23:16:07.359Z,72.90
2023-01-07T23:18:35.510Z,72.90
2023-01-07T23:21:06.729Z,72.90
2023-01-07T23:23:34.413Z,72.90
2023-01-07T23:26:02.127Z,72.90
2023-01-07T23:28:29.818Z,72.90
2023-01-07T23:31:01.422Z,72.90
2023-01-07T23:33:29.139Z,72.90
2023-01-07T23:36:02.500Z,72.90
2023-01-07T23:38:31.542Z,72.90
2023-01-07T23:41:02.958Z,72.90
2023-01-07T23:43:30.716Z,72.90
2023-01-07T23:45:59.229Z,72.90
2023-01-07T23:48:27.512Z,72.90
2023-01-07T23:50:55.459Z,72.90
2023-01-07T23:53:23.733Z,72.90
2023-01-07T23:55:53.618Z,72.90
2023-01-07T23:58:21.408Z,72.90
